Time;durP1;ratioP1;P1;durP2;ratioP2;P2;SDS_P1;SDS_P2;PMS_P1;PMS_P2;Temp;Humidity;BMP_temperature;BMP_pressure;BME280_temperature;BME280_humidity;BME280_pressure;Samples;Min_cycle;Max_cycle;Signal;HPM_P1;HPM_P2
2021/04/27 00:00:50;;;;;;;6.50;5.78;;;;;;;0.75;76.94;99075.42;1730467;80;21160;-67
2021/04/27 00:03:20;;;;;;;7.45;5.72;;;;;;;0.76;76.91;99076.23;1759023;80;21034;-63
2021/04/27 00:05:47;;;;;;;8.95;6.37;;;;;;;0.78;76.85;99079.59;1763180;80;22552;-62
2021/04/27 00:08:14;;;;;;;10.20;7.17;;;;;;;0.81;76.82;99076.24;1785816;80;21104;-63
2021/04/27 00:10:42;;;;;;;8.80;7.10;;;;;;;0.81;76.68;99079.36;1749277;82;21592;-64
2021/04/27 00:13:09;;;;;;;8.25;7.45;;;;;;;0.81;76.57;99082.79;1811023;78;21056;-66
2021/04/27 00:15:38;;;;;;;8.78;7.50;;;;;;;0.80;76.50;99079.83;1746942;81;21021;-63
2021/04/27 00:18:06;;;;;;;9.40;7.55;;;;;;;0.78;76.55;99078.28;1738583;82;21356;-64
2021/04/27 00:20:33;;;;;;;8.45;7.55;;;;;;;0.77;76.54;99079.23;1713138;82;21075;-67
2021/04/27 00:23:01;;;;;;;9.28;6.95;;;;;;;0.76;76.63;99085.41;1765774;80;21569;-63
2021/04/27 00:25:29;;;;;;;9.15;7.35;;;;;;;0.78;76.70;99086.98;1741664;81;21098;-64
2021/04/27 00:27:58;;;;;;;10.48;8.75;;;;;;;0.78;76.60;99083.52;1745926;81;21104;-64
2021/04/27 00:30:27;;;;;;;9.83;7.97;;;;;;;0.74;76.59;99084.69;1721950;81;23609;-65
2021/04/27 00:32:54;;;;;;;14.05;7.95;;;;;;;0.74;76.69;99085.53;1729128;82;20951;-63
2021/04/27 00:35:22;;;;;;;7.85;5.85;;;;;;;0.79;76.66;99084.70;1733247;82;20925;-64
2021/04/27 00:37:49;;;;;;;6.60;5.60;;;;;;;0.85;76.54;99083.39;1806341;79;21037;-64
2021/04/27 00:40:17;;;;;;;7.55;5.62;;;;;;;0.88;76.33;99083.16;1792674;79;21555;-68
2021/04/27 00:42:47;;;;;;;7.80;6.10;;;;;;;0.87;76.25;99087.56;1738338;81;22070;-64
2021/04/27 00:45:21;;;;;;;7.47;5.87;;;;;;;0.90;76.28;99081.25;1738658;82;21207;-63
2021/04/27 00:47:49;;;;;;;7.20;5.42;;;;;;;0.92;76.14;99082.80;1700560;82;21002;-64
2021/04/27 00:50:23;;;;;;;7.37;5.97;;;;;;;0.91;76.01;99077.69;1753084;81;21002;-64
2021/04/27 00:52:50;;;;;;;6.12;5.20;;;;;;;0.89;76.04;99081.72;1746820;80;21519;-64
2021/04/27 00:55:18;;;;;;;8.73;5.42;;;;;;;0.90;76.02;99082.09;1689629;82;21398;-63
2021/04/27 00:57:46;;;;;;;5.85;5.15;;;;;;;0.90;75.97;99079.47;1736960;82;21212;-65
2021/04/27 01:00:20;;;;;;;7.10;5.87;;;;;;;0.89;75.90;99079.10;1784869;79;21045;-66
2021/04/27 01:02:48;;;;;;;10.53;6.22;;;;;;;0.87;75.80;99078.86;1802793;79;21061;-62
2021/04/27 01:05:20;;;;;;;8.25;6.10;;;;;;;0.78;75.90;99075.20;1798909;79;21114;-66
2021/04/27 01:08:23;;;;;;;8.45;6.60;;;;;;;0.71;76.08;99073.98;1775093;79;21381;-64
2021/04/27 01:11:23;;;;;;;8.53;6.00;;;;;;;0.65;76.36;99072.33;1783953;79;21105;-66
2021/04/27 01:14:26;;;;;;;6.62;5.08;;;;;;;0.58;76.48;99070.17;1736146;81;21207;-64
2021/04/27 01:17:03;;;;;;;6.78;5.40;;;;;;;0.52;76.59;99070.63;1769077;81;21112;-64
2021/04/27 01:19:58;;;;;;;5.30;4.50;;;;;;;0.47;76.77;99071.45;1729968;82;21055;-67
2021/04/27 01:22:37;;;;;;;5.08;4.50;;;;;;;0.46;76.86;99071.59;1719866;82;21387;-62
2021/04/27 01:25:07;;;;;;;5.30;4.80;;;;;;;0.44;76.92;99071.69;1723076;81;21329;-64
2021/04/27 01:27:35;;;;;;;6.45;4.60;;;;;;;0.42;77.07;99064.43;1763428;81;21152;-63
2021/04/27 01:30:04;;;;;;;6.22;5.35;;;;;;;0.41;77.09;99068.48;1763435;81;21559;-64
2021/04/27 01:32:31;;;;;;;8.60;6.40;;;;;;;0.40;77.18;99064.19;1736019;81;21487;-63
2021/04/27 01:34:59;;;;;;;8.68;7.78;;;;;;;0.40;77.22;99066.81;1730005;82;21371;-65
2021/04/27 01:37:29;;;;;;;9.58;8.58;;;;;;;0.40;77.27;99061.58;1714692;81;21180;-63
2021/04/27 01:39:56;;;;;;;9.28;8.35;;;;;;;0.41;77.40;99061.47;1738184;80;20996;-66
2021/04/27 01:42:24;;;;;;;8.88;7.95;;;;;;;0.43;77.39;99061.34;1741169;80;21686;-67
2021/04/27 01:44:51;;;;;;;10.43;7.78;;;;;;;0.46;77.42;99062.42;1733468;82;21072;-66
2021/04/27 01:47:19;;;;;;;9.33;7.67;;;;;;;0.48;77.30;99049.58;1748692;81;21550;-63
2021/04/27 01:49:46;;;;;;;9.40;8.00;;;;;;;0.51;77.27;99052.44;1736612;82;21013;-63
2021/04/27 01:52:32;;;;;;;8.35;7.40;;;;;;;0.55;77.25;99052.55;1790704;79;20942;-66
2021/04/27 01:55:04;;;;;;;8.88;7.37;;;;;;;0.57;77.09;99054.59;1780919;79;21057;-63
2021/04/27 01:57:32;;;;;;;8.80;7.62;;;;;;;0.56;77.15;99049.83;1801530;79;21056;-67
2021/04/27 02:00:00;;;;;;;11.55;7.70;;;;;;;0.57;77.14;99051.98;1778287;79;22643;-67
2021/04/27 02:02:33;;;;;;;10.95;8.15;;;;;;;0.57;77.10;99046.23;1739445;81;21149;-64
2021/04/27 02:05:05;;;;;;;10.90;8.28;;;;;;;0.61;77.22;99050.77;1734169;82;20933;-62
2021/04/27 02:07:44;;;;;;;12.60;10.15;;;;;;;0.66;77.23;99054.34;1712816;82;21132;-64
2021/04/27 02:10:12;;;;;;;13.98;10.25;;;;;;;0.68;77.19;99046.72;1694168;84;21130;-66
2021/04/27 02:12:46;;;;;;;14.95;12.80;;;;;;;0.75;77.16;99047.09;1752220;81;21949;-64
2021/04/27 02:15:16;;;;;;;15.48;13.25;;;;;;;0.78;76.88;99045.08;1733159;81;20967;-64
2021/04/27 02:18:00;;;;;;;12.60;11.30;;;;;;;0.82;76.79;99046.97;1734825;81;21157;-65
2021/04/27 02:20:29;;;;;;;10.80;9.60;;;;;;;0.82;76.64;99041.26;1713540;81;21160;-63
2021/04/27 02:22:58;;;;;;;7.90;7.10;;;;;;;0.81;76.59;99045.32;1789013;79;21136;-63
2021/04/27 02:25:45;;;;;;;6.78;6.03;;;;;;;0.88;76.55;99036.02;1814023;77;26728;-67
2021/04/27 02:28:13;;;;;;;6.85;5.35;;;;;;;0.83;76.50;99036.86;1773637;79;20993;-64
2021/04/27 02:30:41;;;;;;;5.60;5.00;;;;;;;0.85;76.45;99037.09;1784213;79;21442;-64
2021/04/27 02:33:09;;;;;;;5.22;4.72;;;;;;;0.83;76.30;99033.77;1774850;79;21628;-65
2021/04/27 02:35:36;;;;;;;6.00;4.08;;;;;;;0.82;76.33;99032.56;1776195;79;20973;-65
2021/04/27 02:38:07;;;;;;;4.30;3.90;;;;;;;0.78;76.31;99029.38;1766871;79;20950;-63
2021/04/27 02:40:37;;;;;;;4.25;3.55;;;;;;;0.78;76.33;99033.30;1793341;79;20996;-62
2021/04/27 02:43:04;;;;;;;6.30;4.67;;;;;;;0.81;76.37;99028.30;1774601;79;21376;-61
2021/04/27 02:45:34;;;;;;;6.67;5.08;;;;;;;0.80;76.37;99031.39;1774887;78;21053;-60
2021/04/27 02:48:23;;;;;;;10.32;5.22;;;;;;;0.80;76.35;99030.08;1772214;79;20944;-62
2021/04/27 02:50:59;;;;;;;6.33;5.65;;;;;;;0.79;76.37;99036.25;1771500;78;20922;-63
2021/04/27 02:53:28;;;;;;;5.75;5.20;;;;;;;0.81;76.42;99041.39;1758575;79;21151;-62
2021/04/27 02:55:56;;;;;;;9.88;6.55;;;;;;;0.82;76.42;99038.64;1791303;79;21380;-63
2021/04/27 02:58:24;;;;;;;8.48;7.05;;;;;;;0.83;76.31;99047.34;1773566;79;21182;-63
2021/04/27 03:00:53;;;;;;;8.30;6.67;;;;;;;0.78;76.20;99042.47;1757399;79;20911;-66
2021/04/27 03:03:21;;;;;;;8.98;7.47;;;;;;;0.77;76.29;99039.95;1758135;79;21498;-63
2021/04/27 03:05:49;;;;;;;10.25;7.10;;;;;;;0.80;76.28;99039.24;1758280;79;21103;-65
2021/04/27 03:08:17;;;;;;;8.05;6.60;;;;;;;0.84;76.46;99034.58;1780428;79;21207;-63
2021/04/27 03:10:46;;;;;;;8.33;6.78;;;;;;;0.92;76.49;99031.73;1782790;79;21669;-63
2021/04/27 03:13:13;;;;;;;8.43;5.22;;;;;;;1.02;76.11;99035.28;1772369;79;20980;-64
2021/04/27 03:15:49;;;;;;;7.50;5.95;;;;;;;1.10;75.94;99027.65;1801044;79;21119;-67
2021/04/27 03:18:16;;;;;;;6.28;5.05;;;;;;;1.18;75.71;99028.34;1786490;79;21145;-65
2021/04/27 03:20:44;;;;;;;5.95;5.15;;;;;;;1.24;75.13;99025.25;1747445;79;21479;-65
2021/04/27 03:23:24;;;;;;;4.50;3.77;;;;;;;1.32;74.81;99026.78;1794588;76;28191;-66
2021/04/27 03:25:52;;;;;;;6.42;3.80;;;;;;;1.32;74.77;99028.56;1777072;79;20962;-67
2021/04/27 03:28:21;;;;;;;5.37;4.37;;;;;;;1.34;74.55;99026.64;1776813;79;21429;-63
2021/04/27 03:30:56;;;;;;;16.43;12.20;;;;;;;1.38;74.47;99029.39;1777129;79;21001;-64
2021/04/27 03:33:23;;;;;;;6.65;4.95;;;;;;;1.40;74.26;99026.16;1799403;79;21194;-64
2021/04/27 03:35:52;;;;;;;5.28;3.22;;;;;;;1.41;74.11;99029.95;1770929;79;20996;-64
2021/04/27 03:38:20;;;;;;;6.97;3.60;;;;;;;1.44;73.94;99027.09;1775156;79;20922;-65
2021/04/27 03:40:48;;;;;;;5.22;4.08;;;;;;;1.46;73.88;99025.17;1792892;77;21355;-64
2021/04/27 03:43:24;;;;;;;5.05;3.87;;;;;;;1.46;73.75;99024.36;1768507;79;21107;-64
2021/04/27 03:45:52;;;;;;;4.85;3.80;;;;;;;1.46;73.64;99026.98;1772183;79;21274;-67
2021/04/27 03:48:20;;;;;;;3.72;3.33;;;;;;;1.44;73.66;99028.40;1783822;79;21843;-66
2021/04/27 03:50:50;;;;;;;5.45;3.85;;;;;;;1.46;73.82;99029.61;1784378;77;21089;-63
2021/04/27 03:53:30;;;;;;;4.20;3.65;;;;;;;1.56;73.75;99029.21;1827211;78;28251;-65
2021/04/27 03:55:57;;;;;;;4.97;4.08;;;;;;;1.55;73.74;99036.23;1796683;79;21112;-68
2021/04/27 03:58:25;;;;;;;5.60;3.65;;;;;;;1.62;73.61;99033.94;1800942;79;22179;-64
2021/04/27 04:00:54;;;;;;;7.20;4.40;;;;;;;1.65;73.40;99032.37;1786189;79;20946;-65
2021/04/27 04:03:22;;;;;;;4.17;3.77;;;;;;;1.65;73.45;99039.77;1778630;79;20977;-63
2021/04/27 04:05:50;;;;;;;6.47;4.17;;;;;;;1.69;73.44;99039.05;1777874;79;21025;-66
2021/04/27 04:08:23;;;;;;;6.12;4.22;;;;;;;1.71;73.33;99036.66;1794518;79;20971;-63
2021/04/27 04:10:50;;;;;;;9.65;4.40;;;;;;;1.74;73.40;99034.27;1781910;79;21612;-64
2021/04/27 04:13:20;;;;;;;6.80;5.12;;;;;;;1.79;73.26;99033.41;1787530;79;21593;-67
2021/04/27 04:15:48;;;;;;;8.53;6.70;;;;;;;1.84;73.16;99033.86;1789839;79;21029;-64
2021/04/27 04:18:15;;;;;;;12.60;8.48;;;;;;;1.89;73.19;99034.31;1777678;79;21010;-64
2021/04/27 04:20:43;;;;;;;15.45;9.65;;;;;;;1.95;73.15;99031.19;1780456;79;21578;-64
2021/04/27 04:23:12;;;;;;;18.05;12.53;;;;;;;2.03;73.01;99036.64;1786806;79;21273;-64
2021/04/27 04:25:40;;;;;;;17.07;10.10;;;;;;;2.09;72.87;99033.48;1794906;79;21605;-66
2021/04/27 04:28:09;;;;;;;15.28;10.25;;;;;;;2.16;73.00;99038.59;1797760;79;20915;-63
2021/04/27 04:30:37;;;;;;;12.43;8.40;;;;;;;2.25;72.75;99040.91;1779177;78;20894;-64
2021/04/27 04:33:24;;;;;;;9.83;7.90;;;;;;;2.31;72.54;99034.67;1799163;78;20977;-65
2021/04/27 04:36:10;;;;;;;7.80;5.90;;;;;;;2.39;72.34;99036.18;1777196;79;21390;-67
2021/04/27 04:38:56;;;;;;;9.53;6.60;;;;;;;2.54;72.25;99035.82;1779401;78;28221;-71
2021/04/27 04:41:41;;;;;;;5.83;5.05;;;;;;;2.63;71.82;99045.09;1778879;78;21179;-62
2021/04/27 04:44:36;;;;;;;8.53;6.15;;;;;;;2.79;71.42;99041.98;1825408;78;28153;-62
2021/04/27 04:47:05;;;;;;;8.00;5.45;;;;;;;2.77;71.16;99046.03;1685768;82;21021;-64
2021/04/27 04:49:52;;;;;;;8.70;4.75;;;;;;;2.81;70.77;99048.77;1771350;80;21384;-65
2021/04/27 04:52:31;;;;;;;7.25;4.28;;;;;;;2.91;70.38;99049.63;1813714;78;28207;-66
2021/04/27 04:55:18;;;;;;;9.68;4.08;;;;;;;2.90;70.13;99046.64;1768952;79;20933;-65
2021/04/27 04:57:59;;;;;;;4.45;3.70;;;;;;;2.96;69.93;99055.80;1761240;79;21378;-62
2021/04/27 05:00:54;;;;;;;7.47;3.67;;;;;;;3.06;69.58;99052.72;1841685;76;28046;-63
2021/04/27 05:03:30;;;;;;;5.33;3.90;;;;;;;3.01;69.30;99049.18;1781229;79;20998;-63
2021/04/27 05:06:18;;;;;;;4.53;3.55;;;;;;;3.00;69.20;99051.45;1782039;79;21216;-63
2021/04/27 05:09:05;;;;;;;4.37;3.77;;;;;;;3.11;69.13;99053.98;1801480;77;20946;-60
2021/04/27 05:11:46;;;;;;;4.83;3.10;;;;;;;3.37;69.22;99055.64;1743222;80;21619;-59
2021/04/27 05:14:25;;;;;;;4.62;3.75;;;;;;;3.82;68.84;99062.55;1737290;80;20952;-71
2021/04/27 05:16:53;;;;;;;3.77;3.42;;;;;;;4.30;67.87;99059.91;1783956;79;21032;-67
2021/04/27 05:19:20;;;;;;;4.62;3.37;;;;;;;4.71;67.00;99055.59;1769955;80;22321;-66
2021/04/27 05:21:49;;;;;;;5.60;4.37;;;;;;;5.14;66.13;99059.42;1755404;80;21049;-69
2021/04/27 05:24:17;;;;;;;6.37;4.53;;;;;;;5.47;64.56;99056.21;1748384;81;20980;-67
2021/04/27 05:26:44;;;;;;;8.00;5.55;;;;;;;5.62;62.79;99056.04;1778135;80;20985;-65
2021/04/27 05:29:13;;;;;;;8.35;5.83;;;;;;;5.74;62.02;99052.67;1733725;81;20996;-66
2021/04/27 05:31:41;;;;;;;7.85;5.12;;;;;;;5.81;61.12;99055.91;1753789;80;23781;-66
2021/04/27 05:34:08;;;;;;;6.03;5.10;;;;;;;5.92;60.98;99058.82;1745958;81;21537;-66
2021/04/27 05:36:36;;;;;;;5.97;4.85;;;;;;;6.26;60.93;99055.02;1782627;80;20943;-65
2021/04/27 05:39:04;;;;;;;5.67;4.47;;;;;;;6.71;59.95;99051.20;1735013;80;21010;-69
2021/04/27 05:41:32;;;;;;;5.95;4.70;;;;;;;7.19;58.79;99051.12;1751664;80;21599;-67
2021/04/27 05:43:59;;;;;;;7.65;4.72;;;;;;;7.73;57.83;99048.47;1749870;80;21401;-67
2021/04/27 05:46:27;;;;;;;8.25;6.80;;;;;;;8.30;56.62;99042.25;1749860;80;20954;-69
2021/04/27 05:48:57;;;;;;;12.28;5.90;;;;;;;8.83;54.46;99045.67;1762852;80;21051;-67
2021/04/27 05:51:24;;;;;;;7.83;4.62;;;;;;;9.24;53.22;99043.70;1763309;79;21137;-68
2021/04/27 05:53:52;;;;;;;6.28;4.70;;;;;;;9.64;52.49;99047.50;1745035;80;21165;-67
2021/04/27 05:56:19;;;;;;;5.65;4.12;;;;;;;10.10;50.72;99041.70;1749881;80;22230;-68
2021/04/27 05:58:48;;;;;;;5.95;4.60;;;;;;;10.52;49.62;99039.89;1764221;80;21244;-66
2021/04/27 06:01:15;;;;;;;9.95;5.72;;;;;;;10.77;48.95;99038.64;1756411;80;21604;-69
2021/04/27 06:03:42;;;;;;;10.93;7.35;;;;;;;11.01;47.37;99039.72;1761808;80;21115;-69
2021/04/27 06:06:10;;;;;;;9.85;6.42;;;;;;;11.18;46.94;99045.70;1770148;80;21145;-69
2021/04/27 06:08:37;;;;;;;7.33;6.40;;;;;;;11.49;46.69;99040.97;1772428;80;21384;-66
2021/04/27 06:11:06;;;;;;;9.80;8.00;;;;;;;11.84;45.28;99040.67;1748227;80;21337;-67
2021/04/27 06:13:34;;;;;;;11.45;7.53;;;;;;;12.01;44.36;99043.94;1760645;80;20931;-66
2021/04/27 06:16:03;;;;;;;10.25;7.35;;;;;;;12.16;44.37;99039.36;1769697;79;21835;-68
2021/04/27 06:18:31;;;;;;;10.25;7.80;;;;;;;12.38;44.35;99042.34;1765645;80;21149;-68
2021/04/27 06:20:59;;;;;;;14.25;9.70;;;;;;;12.62;43.63;99039.77;1746528;80;21370;-66
2021/04/27 06:23:27;;;;;;;14.43;9.80;;;;;;;12.85;43.20;99038.48;1784474;79;21073;-67
2021/04/27 06:25:54;;;;;;;13.05;9.30;;;;;;;13.12;42.00;99037.34;1747091;80;21491;-68
2021/04/27 06:28:21;;;;;;;11.22;8.18;;;;;;;13.22;41.49;99033.83;1762039;80;20963;-66
2021/04/27 06:30:49;;;;;;;14.63;9.25;;;;;;;13.44;40.80;99041.53;1760953;80;21212;-65
2021/04/27 06:33:17;;;;;;;12.23;7.42;;;;;;;13.64;40.57;99033.58;1748498;81;22554;-68
2021/04/27 06:35:45;;;;;;;8.95;5.85;;;;;;;13.97;40.15;99038.53;1749438;80;21083;-66
2021/04/27 06:38:16;;;;;;;12.60;5.15;;;;;;;14.24;38.96;99036.70;1750501;80;21143;-67
2021/04/27 06:40:45;;;;;;;7.25;4.87;;;;;;;14.48;38.51;99032.13;1758961;79;21026;-66
2021/04/27 06:43:13;;;;;;;9.20;6.03;;;;;;;14.64;37.71;99031.72;1738727;81;21605;-66
2021/04/27 06:45:41;;;;;;;9.18;6.28;;;;;;;14.69;37.95;99031.92;1737787;82;21489;-68
2021/04/27 06:48:08;;;;;;;10.08;7.28;;;;;;;14.75;37.47;99033.77;1730937;80;21525;-68
2021/04/27 06:50:40;;;;;;;6.53;3.65;;;;;;;14.89;37.38;99030.54;1723350;80;21486;-66
2021/04/27 06:53:08;;;;;;;7.17;3.92;;;;;;;14.96;35.92;99027.87;1762882;80;21492;-66
2021/04/27 06:55:36;;;;;;;7.62;3.45;;;;;;;14.84;34.54;99042.39;1731137;80;21578;-65
2021/04/27 06:58:10;;;;;;;11.68;3.83;;;;;;;14.54;34.95;99033.98;1735703;81;21428;-68
2021/04/27 07:00:38;;;;;;;9.68;3.45;;;;;;;14.43;35.16;99037.27;1737221;80;21087;-66
2021/04/27 07:03:08;;;;;;;6.83;3.60;;;;;;;14.70;35.63;99040.78;1759182;80;20987;-67
2021/04/27 07:05:36;;;;;;;5.67;4.25;;;;;;;15.16;34.47;99036.16;1758894;79;21098;-67
2021/04/27 07:08:04;;;;;;;6.15;4.37;;;;;;;15.43;34.22;99038.25;1779072;79;21132;-66
2021/04/27 07:10:32;;;;;;;10.95;4.55;;;;;;;15.52;33.00;99041.02;1787171;80;21375;-65
2021/04/27 07:12:59;;;;;;;7.70;3.55;;;;;;;15.54;33.42;99034.13;1768283;79;21030;-67
2021/04/27 07:15:27;;;;;;;3.98;3.10;;;;;;;15.59;32.95;99045.03;1787159;80;21126;-65
2021/04/27 07:17:54;;;;;;;13.13;3.27;;;;;;;15.69;33.09;99037.34;1798905;78;21051;-68
2021/04/27 07:20:22;;;;;;;3.70;2.72;;;;;;;16.04;32.82;99039.42;1774763;78;21542;-66
2021/04/27 07:22:49;;;;;;;5.72;3.10;;;;;;;16.31;31.99;99046.79;1770921;80;21283;-67
2021/04/27 07:25:20;;;;;;;7.20;3.77;;;;;;;16.40;31.92;99046.01;1779702;79;21077;-65
2021/04/27 07:27:48;;;;;;;7.17;4.00;;;;;;;16.45;32.17;99046.97;1745705;80;21151;-55
2021/04/27 07:30:17;;;;;;;4.70;3.50;;;;;;;16.38;32.02;99042.19;1795042;78;20933;-56
2021/04/27 07:32:45;;;;;;;7.42;4.47;;;;;;;16.19;32.33;99045.81;1756943;81;21466;-56
2021/04/27 07:35:13;;;;;;;10.78;4.55;;;;;;;15.71;33.01;99042.80;1759421;79;21360;-56
2021/04/27 07:37:41;;;;;;;5.65;3.90;;;;;;;15.25;35.74;99046.95;1788719;80;20981;-56
2021/04/27 07:40:08;;;;;;;6.33;4.87;;;;;;;14.91;35.00;99046.42;1813833;78;21477;-64
2021/04/27 07:42:38;;;;;;;7.60;5.28;;;;;;;14.51;32.95;99045.61;1756909;81;20951;-62
2021/04/27 07:45:08;;;;;;;5.05;4.03;;;;;;;13.96;33.68;99042.22;1757308;81;21552;-63
2021/04/27 07:47:35;;;;;;;5.40;3.70;;;;;;;13.85;34.37;99041.97;1757405;80;21536;-63
2021/04/27 07:50:05;;;;;;;5.67;4.40;;;;;;;14.00;34.38;99043.98;1766324;80;21031;-63
2021/04/27 07:52:35;;;;;;;5.55;4.80;;;;;;;14.14;33.84;99053.66;1769403;78;21201;-62
2021/04/27 07:55:04;;;;;;;5.90;5.28;;;;;;;13.95;33.03;99053.93;1748889;81;21150;-65
2021/04/27 07:57:31;;;;;;;13.70;3.98;;;;;;;13.45;33.69;99052.52;1760760;78;21636;-62
2021/04/27 07:59:59;;;;;;;7.75;4.80;;;;;;;13.26;33.97;99055.10;1755249;80;22159;-65
2021/04/27 08:02:26;;;;;;;4.17;3.58;;;;;;;13.16;33.95;99066.16;1737168;81;20993;-65
2021/04/27 08:04:54;;;;;;;5.58;4.28;;;;;;;12.88;33.67;99062.63;1745225;80;21147;-63
2021/04/27 08:07:21;;;;;;;7.08;3.42;;;;;;;12.57;34.08;99061.67;1738061;81;21479;-64
2021/04/27 08:09:49;;;;;;;4.90;3.00;;;;;;;12.57;34.67;99054.17;1738342;80;21756;-63
2021/04/27 08:12:16;;;;;;;4.58;3.60;;;;;;;12.93;34.32;99048.21;1741652;81;21461;-63
2021/04/27 08:14:44;;;;;;;6.28;4.20;;;;;;;13.28;33.34;99048.53;1738014;81;21186;-63
2021/04/27 08:17:12;;;;;;;7.37;4.53;;;;;;;13.49;32.78;99055.12;1738049;79;21026;-65
2021/04/27 08:19:39;;;;;;;3.67;2.70;;;;;;;13.63;31.46;99047.16;1707345;82;21188;-63
2021/04/27 08:22:07;;;;;;;2.55;1.45;;;;;;;13.73;31.29;99048.43;1715920;82;21615;-65
2021/04/27 08:24:35;;;;;;;3.20;1.90;;;;;;;13.83;31.09;99052.05;1736717;82;21364;-65
2021/04/27 08:27:06;;;;;;;3.52;1.70;;;;;;;13.98;31.19;99051.36;1766771;81;20949;-64
2021/04/27 08:29:33;;;;;;;3.58;1.65;;;;;;;14.30;31.38;99044.43;1739349;81;21158;-64
2021/04/27 08:32:01;;;;;;;1.65;1.50;;;;;;;14.42;30.81;99051.67;1718084;82;21161;-61
2021/04/27 08:34:29;;;;;;;1.60;1.40;;;;;;;14.16;31.10;99056.45;1737791;82;21156;-64
2021/04/27 08:36:56;;;;;;;4.75;1.42;;;;;;;13.97;31.31;99053.75;1763870;81;21216;-63
2021/04/27 08:39:24;;;;;;;1.77;1.30;;;;;;;13.83;31.18;99061.41;1742620;79;21166;-64
2021/04/27 08:41:52;;;;;;;1.52;0.90;;;;;;;13.80;31.49;99058.63;1714415;82;21019;-62
2021/04/27 08:44:20;;;;;;;1.40;0.82;;;;;;;14.07;30.40;99049.66;1734521;82;21032;-63
2021/04/27 08:46:48;;;;;;;1.60;1.37;;;;;;;14.23;29.56;99043.09;1766310;80;21182;-62
2021/04/27 08:49:16;;;;;;;3.98;1.82;;;;;;;14.20;29.79;99046.17;1741490;79;21376;-62
2021/04/27 08:51:44;;;;;;;2.87;1.70;;;;;;;14.05;33.78;99046.88;1712607;82;21450;-65
2021/04/27 08:54:16;;;;;;;5.00;2.10;;;;;;;14.11;32.94;99044.20;1742497;79;21091;-70
2021/04/27 08:56:43;;;;;;;2.20;1.65;;;;;;;14.32;31.43;99047.75;1729620;81;21240;-65
2021/04/27 08:59:12;;;;;;;4.50;1.98;;;;;;;14.67;31.01;99042.02;1799043;77;21152;-69
2021/04/27 09:01:40;;;;;;;1.95;1.75;;;;;;;14.99;30.55;99040.30;1722314;81;21203;-68
2021/04/27 09:04:08;;;;;;;2.55;1.82;;;;;;;15.27;29.55;99037.38;1762577;81;21142;-65
2021/04/27 09:06:36;;;;;;;1.77;1.62;;;;;;;15.44;28.91;99039.88;1749139;79;21087;-66
2021/04/27 09:09:05;;;;;;;0.80;0.80;;;;;;;15.48;29.05;99041.66;1743748;81;20952;-68
2021/04/27 09:11:42;;;;;;;0.85;0.60;;;;;;;15.60;27.91;99038.10;1768930;79;21120;-67
2021/04/27 09:14:20;;;;;;;1.85;0.57;;;;;;;15.57;26.88;99039.86;1721205;82;21208;-66
2021/04/27 09:16:54;;;;;;;0.50;0.50;;;;;;;15.51;26.75;99038.05;1778675;79;21113;-67
2021/04/27 09:19:39;;;;;;;2.17;0.90;;;;;;;15.80;27.25;99029.44;1793260;77;21564;-67
2021/04/27 09:22:11;;;;;;;2.62;1.70;;;;;;;16.23;26.51;99026.91;1782289;78;21077;-66
2021/04/27 09:24:54;;;;;;;5.60;1.70;;;;;;;16.60;26.53;99018.50;1737546;81;21184;-67
2021/04/27 09:27:32;;;;;;;2.45;1.70;;;;;;;16.85;26.45;99009.89;1743992;81;22250;-66
2021/04/27 09:30:14;;;;;;;4.30;1.70;;;;;;;17.06;26.21;99020.74;1744320;80;21008;-67
2021/04/27 09:32:53;;;;;;;3.45;2.20;;;;;;;17.24;26.00;99013.52;1760126;80;21133;-68
2021/04/27 09:35:40;;;;;;;3.17;2.35;;;;;;;17.38;24.92;99013.36;1763826;79;21626;-67
2021/04/27 09:38:23;;;;;;;4.53;3.15;;;;;;;17.05;25.08;99015.09;1744814;81;21493;-67
2021/04/27 09:41:00;;;;;;;3.90;3.17;;;;;;;16.53;25.49;99027.95;1739244;80;21313;-71
2021/04/27 09:43:34;;;;;;;4.65;1.80;;;;;;;16.08;25.89;99028.27;1748090;81;20961;-68
2021/04/27 09:46:07;;;;;;;2.27;1.00;;;;;;;15.65;26.26;99024.87;1734933;79;21141;-69
2021/04/27 09:48:44;;;;;;;2.35;0.80;;;;;;;15.31;26.49;99029.20;1738884;80;21065;-67
2021/04/27 09:51:27;;;;;;;2.77;1.17;;;;;;;14.97;26.37;99024.14;1736246;81;21122;-66
2021/04/27 09:54:00;;;;;;;1.12;0.80;;;;;;;14.59;26.80;99030.17;1737855;81;22300;-66
2021/04/27 09:56:50;;;;;;;1.37;1.00;;;;;;;14.40;27.26;99028.31;1743828;81;20936;-64
2021/04/27 09:59:31;;;;;;;6.28;1.65;;;;;;;14.28;27.39;99031.78;1759966;79;21111;-68
2021/04/27 10:02:01;;;;;;;4.03;2.83;;;;;;;14.18;27.69;99025.50;1744118;79;21087;-65
2021/04/27 10:04:28;;;;;;;6.28;4.22;;;;;;;14.27;27.82;99029.61;1752274;79;21064;-65
2021/04/27 10:07:00;;;;;;;6.53;4.45;;;;;;;14.18;27.57;99026.30;1749987;79;21256;-64
2021/04/27 10:09:28;;;;;;;5.60;4.08;;;;;;;13.90;27.73;99029.64;1731357;81;21071;-65
2021/04/27 10:11:57;;;;;;;2.62;2.42;;;;;;;13.64;27.61;99025.56;1731437;79;21112;-63
2021/04/27 10:14:25;;;;;;;2.75;1.90;;;;;;;13.35;27.73;99031.19;1730421;81;21052;-68
2021/04/27 10:16:54;;;;;;;3.45;1.90;;;;;;;13.05;28.07;99035.13;1726815;81;21139;-65
2021/04/27 10:19:21;;;;;;;3.15;2.22;;;;;;;12.73;28.65;99033.87;1726833;79;21579;-65
2021/04/27 10:21:51;;;;;;;6.20;1.70;;;;;;;12.57;28.92;99036.83;1748022;79;21036;-66
2021/04/27 10:24:23;;;;;;;5.03;1.42;;;;;;;12.36;29.27;99026.52;1726764;81;21024;-66
2021/04/27 10:26:49;;;;;;;1.30;0.80;;;;;;;12.21;29.91;99030.27;1729947;79;21629;-67
2021/04/27 10:29:24;;;;;;;3.92;1.57;;;;;;;12.15;30.15;99033.19;1756712;81;21589;-65
2021/04/27 10:32:17;;;;;;;2.30;0.93;;;;;;;12.07;30.50;99029.32;1733154;79;26789;-66
2021/04/27 10:35:03;;;;;;;3.20;1.05;;;;;;;12.06;30.25;99038.85;1726705;79;21510;-68
2021/04/27 10:37:52;;;;;;;4.05;0.95;;;;;;;12.04;30.19;99039.06;1726991;79;21179;-69
2021/04/27 10:40:53;;;;;;;2.15;1.15;;;;;;;12.11;30.21;99034.61;1726709;81;21518;-70
2021/04/27 10:43:29;;;;;;;1.20;1.10;;;;;;;12.13;29.61;99035.23;1726739;81;21119;-65
2021/04/27 10:46:06;;;;;;;1.27;0.90;;;;;;;12.14;29.50;99026.73;1726938;79;25094;-67
2021/04/27 10:48:41;;;;;;;1.87;0.80;;;;;;;12.24;29.61;99021.39;1743449;79;20957;-67
2021/04/27 10:51:28;;;;;;;4.10;2.10;;;;;;;12.58;29.52;99018.48;1732835;81;21204;-66
2021/04/27 10:54:19;;;;;;;3.83;2.80;;;;;;;12.95;29.38;99014.95;1743706;79;21627;-66
2021/04/27 10:57:08;;;;;;;4.10;2.60;;;;;;;13.19;28.77;99015.52;1758944;79;21091;-68
2021/04/27 10:59:56;;;;;;;4.55;2.98;;;;;;;13.30;28.71;99014.43;1734393;80;22366;-68
2021/04/27 11:02:29;;;;;;;3.80;2.67;;;;;;;13.34;28.69;99007.69;1768214;79;21167;-66
2021/04/27 11:05:01;;;;;;;2.05;1.67;;;;;;;13.41;28.24;99012.53;1788281;79;21551;-70
2021/04/27 11:07:31;;;;;;;3.20;1.40;;;;;;;13.47;27.44;98998.89;1796589;79;21573;-65
2021/04/27 11:10:04;;;;;;;1.15;1.02;;;;;;;13.57;27.51;99002.84;1781713;79;21458;-69
2021/04/27 11:12:37;;;;;;;2.30;1.20;;;;;;;13.65;27.11;98999.66;1779900;79;21347;-66
2021/04/27 11:15:09;;;;;;;2.87;1.37;;;;;;;13.71;26.83;98997.02;1795229;79;21220;-68
2021/04/27 11:17:41;;;;;;;1.20;1.10;;;;;;;13.70;27.00;98994.53;1775782;79;21132;-67
2021/04/27 11:20:10;;;;;;;1.27;1.07;;;;;;;13.74;27.27;98992.58;1804487;79;21128;-69
2021/04/27 11:22:50;;;;;;;2.17;1.10;;;;;;;13.82;26.98;98987.05;1797509;79;21109;-67
2021/04/27 11:25:34;;;;;;;4.33;0.90;;;;;;;13.88;26.64;98988.92;1808233;79;22134;-69
2021/04/27 11:28:03;;;;;;;0.80;0.80;;;;;;;13.99;26.24;98989.67;1781569;79;20973;-68
2021/04/27 11:30:34;;;;;;;1.30;0.80;;;;;;;14.03;26.13;98980.70;1781633;79;21071;-67
2021/04/27 11:33:06;;;;;;;2.33;1.10;;;;;;;13.96;25.87;98986.06;1781618;79;21578;-68
2021/04/27 11:35:43;;;;;;;0.90;0.80;;;;;;;14.02;26.07;98981.75;1749290;80;21053;-67
2021/04/27 11:38:10;;;;;;;1.80;1.00;;;;;;;14.04;25.98;98985.88;1800502;79;21195;-66
2021/04/27 11:40:39;;;;;;;3.95;1.40;;;;;;;14.12;26.03;98976.31;1813512;77;21991;-68
2021/04/27 11:43:14;;;;;;;1.77;1.12;;;;;;;14.16;26.16;98978.05;1813763;79;20963;-66
2021/04/27 11:45:49;;;;;;;2.22;1.37;;;;;;;14.11;26.03;98981.84;1784412;78;21014;-66
2021/04/27 11:48:19;;;;;;;3.22;1.02;;;;;;;13.91;26.15;98981.01;1728858;82;21063;-67
2021/04/27 11:50:47;;;;;;;2.65;1.05;;;;;;;13.67;26.39;98980.23;1803594;79;21215;-66
2021/04/27 11:53:16;;;;;;;1.95;1.10;;;;;;;13.48;26.80;98984.48;1781792;79;20985;-66
2021/04/27 11:55:53;;;;;;;16.12;2.08;;;;;;;13.27;27.15;98985.44;1781529;79;20997;-65
2021/04/27 11:58:23;;;;;;;;;;;;;;;13.06;27.13;98988.21;1780516;79;21053;-66